Time;durP1;ratioP1;P1;durP2;ratioP2;P2;SDS_P1;SDS_P2;PMS_P1;PMS_P2;Temp;Humidity;BMP_temperature;BMP_pressure;BME280_temperature;BME280_humidity;BME280_pressure;Samples;Min_cycle;Max_cycle;Signal;HPM_P1;HPM_P2
2023/07/18 00:00:25;;;;;;;10.70;6.00;;;;;;;15.81;81.34;102010.19;5091666;28;20035;-67
2023/07/18 00:02:51;;;;;;;8.77;6.10;;;;;;;15.83;81.32;102016.34;5114447;28;20027;-67
2023/07/18 00:05:17;;;;;;;10.07;5.82;;;;;;;15.60;82.32;102009.78;5114574;28;20486;-67
2023/07/18 00:07:42;;;;;;;10.90;5.70;;;;;;;15.71;81.93;102014.47;5096050;28;20130;-67
2023/07/18 00:10:09;;;;;;;9.95;5.47;;;;;;;15.65;82.20;102013.03;5096087;28;20070;-67
2023/07/18 00:12:35;;;;;;;11.48;6.00;;;;;;;15.65;82.80;102013.88;5114747;28;20055;-67
2023/07/18 00:15:04;;;;;;;9.43;6.00;;;;;;;15.50;83.54;102014.00;5113765;28;20106;-67
2023/07/18 00:17:31;;;;;;;9.88;6.47;;;;;;;15.55;83.41;102014.56;5095831;28;20031;-67
2023/07/18 00:19:58;;;;;;;11.10;6.40;;;;;;;15.55;83.20;102014.56;5114017;28;20020;-67
2023/07/18 00:22:23;;;;;;;9.63;6.45;;;;;;;15.49;83.85;102018.50;5114355;28;20027;-67
2023/07/18 00:24:49;;;;;;;9.93;6.30;;;;;;;15.44;83.90;102010.78;5095500;28;20056;-67
2023/07/18 00:27:16;;;;;;;9.85;6.43;;;;;;;15.52;83.82;102018.31;5096241;28;20023;-67
2023/07/18 00:29:42;;;;;;;11.40;7.63;;;;;;;15.48;84.64;102018.63;5091574;28;20503;-67
2023/07/18 00:32:07;;;;;;;10.30;7.38;;;;;;;15.48;84.19;102027.53;5111357;28;20028;-67
2023/07/18 00:34:35;;;;;;;13.38;8.30;;;;;;;15.42;85.28;102026.09;5113592;28;20035;-67
2023/07/18 00:37:01;;;;;;;9.93;8.00;;;;;;;15.50;85.19;102017.56;5113814;28;20026;-67
2023/07/18 00:39:26;;;;;;;11.35;8.18;;;;;;;15.36;86.02;102015.78;5111854;28;20027;-67
2023/07/18 00:41:52;;;;;;;12.40;9.25;;;;;;;15.38;85.34;102024.59;5114113;28;20496;-67
2023/07/18 00:44:17;;;;;;;16.05;8.63;;;;;;;15.39;86.06;102004.00;5112695;28;20051;-67
2023/07/18 00:46:43;;;;;;;18.42;9.70;;;;;;;15.47;86.15;102016.88;5094634;28;20156;-67
2023/07/18 00:49:09;;;;;;;11.68;8.43;;;;;;;15.34;86.46;102000.75;5093359;28;20020;-67
2023/07/18 00:51:35;;;;;;;11.68;8.43;;;;;;;15.35;86.48;102011.38;5111894;28;20031;-67
2023/07/18 00:54:01;;;;;;;13.50;8.10;;;;;;;15.42;86.17;102006.47;5093628;28;20027;-67
2023/07/18 00:56:27;;;;;;;17.20;8.73;;;;;;;15.37;85.83;102001.38;5109417;28;20104;-67
2023/07/18 00:58:55;;;;;;;10.90;7.78;;;;;;;15.31;85.84;101993.75;5092252;28;20015;-67
2023/07/18 01:01:21;;;;;;;13.05;7.80;;;;;;;15.33;85.83;102002.56;5112600;28;20034;-67
2023/07/18 01:03:46;;;;;;;11.95;8.50;;;;;;;15.20;86.18;101996.25;5113119;28;20102;-67
2023/07/18 01:06:12;;;;;;;11.40;8.50;;;;;;;15.17;86.31;101999.13;5095189;28;20462;-66
2023/07/18 01:08:39;;;;;;;10.65;7.82;;;;;;;15.14;86.09;102002.00;5094318;28;20051;-67
2023/07/18 01:11:08;;;;;;;10.63;8.15;;;;;;;15.07;86.23;102004.22;5113481;28;20394;-67
2023/07/18 01:13:34;;;;;;;12.45;7.25;;;;;;;15.14;85.44;101994.81;5113063;28;20306;-67
2023/07/18 01:16:02;;;;;;;10.75;7.80;;;;;;;15.06;85.55;101999.84;5095070;28;20035;-67
2023/07/18 01:18:28;;;;;;;13.18;6.82;;;;;;;15.01;85.60;102001.09;5112972;28;20057;-67
2023/07/18 01:20:58;;;;;;;17.23;7.78;;;;;;;15.08;85.54;101995.22;5113396;28;20149;-67
2023/07/18 01:23:26;;;;;;;13.10;7.03;;;;;;;14.99;85.16;101988.63;5110782;28;20386;-67
2023/07/18 01:25:52;;;;;;;9.93;7.78;;;;;;;14.99;85.23;101988.63;5112082;28;20474;-67
2023/07/18 01:28:18;;;;;;;11.30;7.07;;;;;;;14.99;84.94;101987.78;5110725;28;20027;-67
2023/07/18 01:30:43;;;;;;;12.75;7.07;;;;;;;14.87;84.86;101984.03;5088915;28;20030;-67
2023/07/18 01:33:08;;;;;;;11.98;7.43;;;;;;;14.86;85.11;101982.34;5111687;28;20019;-67
2023/07/18 01:35:34;;;;;;;10.43;7.05;;;;;;;14.90;85.04;101991.88;5111688;28;20016;-67
2023/07/18 01:37:59;;;;;;;8.63;6.95;;;;;;;14.87;85.54;101985.88;5093869;28;20032;-67
2023/07/18 01:40:27;;;;;;;8.90;6.45;;;;;;;14.86;85.32;101984.16;5093232;28;20048;-67
2023/07/18 01:42:56;;;;;;;13.82;7.13;;;;;;;14.77;85.21;101982.91;5092056;28;20046;-67
2023/07/18 01:45:24;;;;;;;14.07;7.47;;;;;;;14.77;85.91;101978.41;5093495;28;20081;-67
2023/07/18 01:47:51;;;;;;;11.90;7.05;;;;;;;14.81;85.33;101978.22;5111928;28;20054;-67
2023/07/18 01:50:17;;;;;;;15.18;7.03;;;;;;;14.71;85.68;101980.63;5093348;28;20038;-67
2023/07/18 01:52:43;;;;;;;18.70;7.40;;;;;;;14.68;85.59;101970.97;5111423;28;20045;-67
2023/07/18 01:55:09;;;;;;;11.38;7.35;;;;;;;14.78;85.28;101960.53;5110764;28;20475;-67
2023/07/18 01:57:38;;;;;;;10.10;7.15;;;;;;;14.76;85.42;101970.47;5111567;28;20032;-67
2023/07/18 02:00:11;;;;;;;12.95;7.15;;;;;;;14.76;85.24;101975.81;5111699;28;20093;-67
2023/07/18 02:02:40;;;;;;;9.48;6.70;;;;;;;14.66;85.22;101972.00;5092985;28;20033;-67
2023/07/18 02:05:06;;;;;;;10.80;6.90;;;;;;;14.70;85.13;101952.09;5110876;28;20161;-66
2023/07/18 02:07:31;;;;;;;7.95;6.85;;;;;;;14.74;84.69;101967.91;5112405;28;20131;-66
2023/07/18 02:10:00;;;;;;;10.77;7.05;;;;;;;14.57;85.34;101962.72;5110862;28;20040;-66
2023/07/18 02:12:26;;;;;;;14.10;7.82;;;;;;;14.59;85.37;101958.16;5093064;28;20031;-67
2023/07/18 02:14:51;;;;;;;9.30;7.18;;;;;;;14.66;84.50;101955.94;5110601;28;20394;-67
2023/07/18 02:17:17;;;;;;;12.13;7.32;;;;;;;14.54;84.56;101953.06;5093200;28;20547;-67
2023/07/18 02:19:42;;;;;;;9.55;6.88;;;;;;;14.55;84.68;101961.97;5111444;28;20098;-67
2023/07/18 02:22:07;;;;;;;12.45;6.90;;;;;;;14.44;84.91;101949.22;5111291;28;20077;-67
2023/07/18 02:24:33;;;;;;;10.68;6.95;;;;;;;14.56;84.30;101958.34;5110699;28;20458;-67
2023/07/18 02:26:59;;;;;;;8.55;7.10;;;;;;;14.58;84.22;101963.59;5109647;28;20063;-66
2023/07/18 02:29:25;;;;;;;12.40;6.53;;;;;;;14.53;84.30;101954.03;5092188;28;20069;-66
2023/07/18 02:31:50;;;;;;;14.45;7.32;;;;;;;14.46;84.49;101962.50;5111677;28;20372;-67
2023/07/18 02:34:16;;;;;;;9.02;6.05;;;;;;;14.47;84.14;101961.53;5108703;28;20019;-67
2023/07/18 02:36:41;;;;;;;8.68;6.65;;;;;;;14.49;83.63;101948.91;5093058;28;20045;-68
2023/07/18 02:39:10;;;;;;;12.05;6.97;;;;;;;14.31;84.31;101945.56;5113931;28;20031;-67
2023/07/18 02:41:36;;;;;;;11.13;7.38;;;;;;;14.41;84.05;101956.56;5114565;28;20106;-67
2023/07/18 02:44:01;;;;;;;11.15;6.43;;;;;;;14.42;83.58;101963.66;5115367;28;20111;-66
2023/07/18 02:46:26;;;;;;;10.57;6.50;;;;;;;14.41;83.18;101962.78;5113161;28;20049;-67
2023/07/18 02:48:52;;;;;;;10.82;6.93;;;;;;;14.26;83.45;101964.56;5115181;28;20023;-66
2023/07/18 02:51:17;;;;;;;10.93;6.90;;;;;;;14.34;83.43;101956.09;5111079;28;20015;-67
2023/07/18 02:53:43;;;;;;;7.25;6.55;;;;;;;14.21;83.36;101949.78;5114468;28;20034;-67
2023/07/18 02:56:09;;;;;;;7.50;6.80;;;;;;;14.07;83.75;101948.78;5115969;28;20027;-67
2023/07/18 02:58:34;;;;;;;10.57;6.57;;;;;;;14.15;83.54;101964.38;5113517;28;20516;-66
2023/07/18 03:01:00;;;;;;;11.43;6.30;;;;;;;14.26;83.42;101955.69;5078804;28;20363;-67
2023/07/18 03:03:26;;;;;;;11.35;6.75;;;;;;;14.13;82.92;101960.06;5112240;28;20024;-67
2023/07/18 03:05:53;;;;;;;9.43;6.65;;;;;;;14.19;82.42;101951.66;5096557;28;20062;-67
2023/07/18 03:08:18;;;;;;;7.32;6.25;;;;;;;14.15;83.35;101953.69;5096639;28;20039;-67
2023/07/18 03:10:44;;;;;;;8.23;5.93;;;;;;;14.03;82.98;101946.38;5097234;28;20024;-67
2023/07/18 03:13:10;;;;;;;8.80;5.18;;;;;;;14.00;83.06;101949.22;5115595;28;20066;-66
2023/07/18 03:15:39;;;;;;;7.40;6.00;;;;;;;14.07;82.57;101953.28;5095063;28;20073;-66
2023/07/18 03:18:06;;;;;;;9.73;5.70;;;;;;;13.96;83.03;101951.22;5112176;28;20024;-67
2023/07/18 03:20:34;;;;;;;8.82;6.00;;;;;;;14.07;82.01;101958.63;5112315;28;20047;-67
2023/07/18 03:23:01;;;;;;;9.27;5.78;;;;;;;14.02;82.13;101947.31;5113753;28;20019;-67
2023/07/18 03:25:27;;;;;;;8.55;5.95;;;;;;;14.01;82.62;101946.47;5096031;28;20030;-66
2023/07/18 03:27:52;;;;;;;8.55;5.90;;;;;;;13.98;81.77;101943.13;5112589;28;20019;-67
2023/07/18 03:30:18;;;;;;;6.90;5.78;;;;;;;14.01;82.24;101954.50;5113624;28;20022;-67
2023/07/18 03:32:43;;;;;;;8.82;7.00;;;;;;;13.88;82.02;101945.47;5110961;28;20129;-67
2023/07/18 03:35:10;;;;;;;6.82;5.75;;;;;;;13.89;82.18;101947.22;5114280;28;20138;-66
2023/07/18 03:37:37;;;;;;;7.07;6.10;;;;;;;13.88;81.76;101948.13;5115218;28;20039;-67
2023/07/18 03:40:06;;;;;;;7.93;5.68;;;;;;;13.78;82.06;101950.50;5112927;28;20031;-67
2023/07/18 03:42:33;;;;;;;8.95;6.38;;;;;;;13.88;82.07;101944.59;5096886;28;20049;-67
2023/07/18 03:44:58;;;;;;;7.75;5.95;;;;;;;13.86;81.72;101952.75;5113407;28;20059;-67
2023/07/18 03:47:23;;;;;;;6.35;5.63;;;;;;;13.80;82.04;101948.63;5114156;28;20116;-66
2023/07/18 03:49:50;;;;;;;6.53;5.70;;;;;;;13.87;82.44;101951.78;5092483;28;20035;-67
2023/07/18 03:52:15;;;;;;;3.53;3.22;;;;;;;14.03;81.62;101949.94;5114730;28;20084;-66
2023/07/18 03:54:40;;;;;;;6.80;5.00;;;;;;;13.77;81.94;101935.44;5093034;28;20027;-67
2023/07/18 03:57:06;;;;;;;7.65;5.60;;;;;;;13.67;82.45;101946.75;5113313;28;20016;-67
2023/07/18 03:59:34;;;;;;;9.52;5.60;;;;;;;13.63;82.48;101938.03;5113682;28;20036;-66
2023/07/18 04:01:59;;;;;;;7.78;5.60;;;;;;;13.68;82.85;101944.00;5110102;28;20031;-67
2023/07/18 04:04:25;;;;;;;7.65;5.88;;;;;;;13.66;82.16;101934.34;5114408;28;20026;-67
2023/07/18 04:06:50;;;;;;;6.97;5.68;;;;;;;13.52;82.88;101937.81;5113250;28;20060;-66
2023/07/18 04:09:15;;;;;;;8.40;5.97;;;;;;;13.51;83.05;101936.09;5113312;28;20023;-67
2023/07/18 04:11:43;;;;;;;6.75;5.85;;;;;;;13.60;82.83;101933.72;5109343;28;20035;-67
2023/07/18 04:14:09;;;;;;;8.32;5.50;;;;;;;13.50;82.81;101915.63;5093538;28;20055;-67
2023/07/18 04:16:34;;;;;;;10.95;6.30;;;;;;;13.50;82.78;101929.00;5114465;28;20047;-67
2023/07/18 04:19:02;;;;;;;8.00;5.50;;;;;;;13.54;83.02;101928.75;5093915;28;20047;-67
2023/07/18 04:21:28;;;;;;;5.75;4.97;;;;;;;13.53;82.35;101913.66;5095882;28;20024;-67
2023/07/18 04:23:53;;;;;;;8.45;5.63;;;;;;;13.54;82.40;101914.53;5113858;28;20382;-67
2023/07/18 04:26:19;;;;;;;9.32;5.75;;;;;;;13.53;82.51;101916.34;5114245;28;20043;-67
2023/07/18 04:28:44;;;;;;;7.47;5.78;;;;;;;13.54;82.11;101918.06;5092107;28;20470;-67
2023/07/18 04:31:09;;;;;;;11.32;5.63;;;;;;;13.64;82.46;101913.03;5095327;28;20038;-66
2023/07/18 04:33:36;;;;;;;4.13;3.08;;;;;;;13.80;81.79;101923.69;5093876;28;20049;-67
2023/07/18 04:36:04;;;;;;;7.93;6.03;;;;;;;13.58;82.67;101924.06;5095702;28;20409;-66
2023/07/18 04:38:29;;;;;;;7.50;5.10;;;;;;;13.62;82.34;101926.50;5095055;28;20023;-66
2023/07/18 04:40:55;;;;;;;7.13;5.78;;;;;;;13.67;81.63;101917.34;5113493;28;20043;-66
2023/07/18 04:43:20;;;;;;;7.15;5.32;;;;;;;13.64;81.83;101913.03;5112184;28;20065;-67
2023/07/18 04:45:47;;;;;;;7.68;5.28;;;;;;;13.63;81.88;101922.84;5093877;28;20059;-67
2023/07/18 04:48:14;;;;;;;7.47;5.50;;;;;;;13.69;81.50;101921.63;5077803;28;20034;-67
2023/07/18 04:50:43;;;;;;;7.75;6.20;;;;;;;13.70;81.83;101920.69;5111321;28;20069;-67
2023/07/18 04:53:09;;;;;;;3.33;3.03;;;;;;;13.90;80.95;101918.66;5110451;28;20053;-67
2023/07/18 04:55:36;;;;;;;11.50;5.18;;;;;;;13.77;81.12;101915.84;5111255;28;20028;-67
2023/07/18 04:58:03;;;;;;;9.65;5.72;;;;;;;13.70;81.87;101914.47;5111663;28;20046;-66
2023/07/18 05:00:31;;;;;;;7.45;6.03;;;;;;;13.73;80.67;101911.63;5092939;28;20542;-67
2023/07/18 05:02:57;;;;;;;10.38;5.28;;;;;;;13.86;80.63;101917.97;5111555;28;20024;-66
2023/07/18 05:05:25;;;;;;;8.70;5.55;;;;;;;13.92;80.70;101917.59;5112485;28;20023;-67
2023/07/18 05:07:50;;;;;;;5.90;5.20;;;;;;;14.08;80.37;101913.03;5094050;28;20108;-66
2023/07/18 05:10:15;;;;;;;11.75;5.97;;;;;;;14.19;79.57;101912.38;5111431;28;20514;-67
2023/07/18 05:12:41;;;;;;;7.95;5.88;;;;;;;14.05;79.98;101915.03;5112552;28;20024;-66
2023/07/18 05:15:10;;;;;;;5.35;4.65;;;;;;;14.17;79.52;101921.47;5094109;28;20055;-67
2023/07/18 05:17:35;;;;;;;8.73;5.70;;;;;;;14.27;79.37;101919.97;5093841;28;20063;-66
2023/07/18 05:20:01;;;;;;;7.35;5.00;;;;;;;14.29;79.13;101918.91;5092532;28;20148;-67
2023/07/18 05:22:26;;;;;;;10.32;5.20;;;;;;;14.36;79.37;101919.38;5110896;28;20026;-67
2023/07/18 05:24:52;;;;;;;10.63;5.32;;;;;;;14.39;79.24;101918.34;5110329;28;20031;-66
2023/07/18 05:27:21;;;;;;;14.80;5.88;;;;;;;14.48;78.90;101910.59;5113215;28;20019;-66
2023/07/18 05:29:47;;;;;;;8.40;5.22;;;;;;;14.42;79.89;101910.13;5109095;28;20107;-66
2023/07/18 05:32:13;;;;;;;9.32;5.22;;;;;;;14.62;78.83;101916.91;5112739;28;20548;-66
2023/07/18 05:34:38;;;;;;;7.05;5.25;;;;;;;14.60;78.25;101902.78;5092509;28;20020;-66
2023/07/18 05:37:04;;;;;;;7.88;5.30;;;;;;;14.63;78.12;101899.91;5093816;28;20758;-67
2023/07/18 05:39:35;;;;;;;6.65;5.38;;;;;;;14.72;78.14;101899.31;5110922;28;20076;-67
2023/07/18 05:42:00;;;;;;;6.30;4.82;;;;;;;14.91;77.77;101913.28;5093162;28;20015;-66
2023/07/18 05:44:26;;;;;;;8.20;4.75;;;;;;;14.98;77.50;101911.91;5111913;28;20124;-66
2023/07/18 05:46:51;;;;;;;9.60;4.88;;;;;;;15.04;76.88;101916.00;5107400;28;20035;-67
2023/07/18 05:49:17;;;;;;;8.43;4.70;;;;;;;15.09;77.04;101916.56;5112342;28;20102;-67
2023/07/18 05:51:45;;;;;;;7.93;4.80;;;;;;;15.19;76.81;101924.88;5094176;28;20035;-66
2023/07/18 05:54:10;;;;;;;7.63;5.30;;;;;;;15.21;76.42;101921.13;5111899;28;20482;-67
2023/07/18 05:56:35;;;;;;;6.72;4.95;;;;;;;15.26;76.75;101919.97;5094495;28;20026;-66
2023/07/18 05:59:01;;;;;;;8.50;5.05;;;;;;;15.32;76.76;101915.03;5111529;28;20019;-67
2023/07/18 06:01:26;;;;;;;8.48;5.00;;;;;;;15.37;75.98;101925.47;5112566;28;20027;-67
2023/07/18 06:03:52;;;;;;;7.85;4.72;;;;;;;15.51;76.25;101928.09;5112296;28;20470;-67
2023/07/18 06:06:19;;;;;;;7.75;5.28;;;;;;;15.59;76.54;101923.09;5094202;28;20076;-69
2023/07/18 06:08:44;;;;;;;6.10;4.35;;;;;;;15.66;76.72;101927.06;5111037;28;20134;-66
2023/07/18 06:11:11;;;;;;;8.32;5.15;;;;;;;15.72;75.17;101933.88;5093594;28;20123;-67
2023/07/18 06:13:41;;;;;;;6.65;5.00;;;;;;;15.88;74.39;101929.22;5092943;28;20035;-66
2023/07/18 06:16:06;;;;;;;10.65;4.22;;;;;;;15.86;74.22;101923.06;5112332;28;20019;-66
2023/07/18 06:18:31;;;;;;;9.10;4.40;;;;;;;15.97;75.30;101935.78;5110882;28;20019;-66
2023/07/18 06:20:57;;;;;;;7.05;4.20;;;;;;;16.11;74.39;101929.44;5111377;28;20076;-66
2023/07/18 06:23:22;;;;;;;8.32;4.95;;;;;;;16.22;73.36;101929.56;5111477;28;20023;-67
2023/07/18 06:25:48;;;;;;;9.98;4.47;;;;;;;16.23;72.50;101923.22;5112151;28;20042;-67
2023/07/18 06:28:13;;;;;;;7.68;4.47;;;;;;;16.33;72.46;101920.75;5112211;28;20360;-66
2023/07/18 06:30:41;;;;;;;10.32;4.13;;;;;;;16.39;72.27;101928.38;5111549;28;20042;-67
2023/07/18 06:33:06;;;;;;;9.50;4.32;;;;;;;16.56;72.84;101925.38;5112244;28;20040;-67
2023/07/18 06:35:32;;;;;;;6.43;4.10;;;;;;;16.59;71.51;101924.28;5111036;28;20384;-67
2023/07/18 06:37:57;;;;;;;5.55;4.00;;;;;;;16.76;71.51;101928.47;5111756;28;20024;-67
2023/07/18 06:40:23;;;;;;;7.82;3.83;;;;;;;16.77;71.23;101920.31;5110582;28;20016;-67
2023/07/18 06:42:48;;;;;;;10.20;4.32;;;;;;;16.87;71.64;101919.66;5108977;28;20031;-67
2023/07/18 06:45:14;;;;;;;7.00;3.22;;;;;;;17.05;70.73;101922.81;5112136;28;20133;-67
2023/07/18 06:47:40;;;;;;;8.00;3.80;;;;;;;17.08;69.76;101918.06;5093817;28;20019;-67
2023/07/18 06:50:06;;;;;;;7.68;3.58;;;;;;;17.19;68.75;101907.38;5108842;28;20008;-67
2023/07/18 06:52:31;;;;;;;6.88;3.45;;;;;;;17.32;68.48;101920.75;5111766;28;20466;-67
2023/07/18 06:54:56;;;;;;;5.60;3.10;;;;;;;17.45;67.95;101916.19;5111363;28;20031;-67
2023/07/18 06:57:22;;;;;;;5.93;3.53;;;;;;;17.53;66.67;101910.25;5091253;28;20027;-67
2023/07/18 06:59:47;;;;;;;8.65;3.60;;;;;;;17.57;65.51;101924.31;5093075;28;20024;-67
2023/07/18 07:02:13;;;;;;;6.03;3.00;;;;;;;17.63;65.40;101911.25;5111115;28;20023;-67
2023/07/18 07:04:39;;;;;;;3.38;3.00;;;;;;;17.73;65.06;101914.09;5111654;28;20057;-67
2023/07/18 07:07:07;;;;;;;9.38;3.38;;;;;;;17.76;64.22;101921.94;5110361;28;20027;-67
2023/07/18 07:09:33;;;;;;;8.48;3.05;;;;;;;17.89;64.13;101914.69;5109975;28;20059;-67
2023/07/18 07:12:02;;;;;;;3.72;3.08;;;;;;;18.02;65.74;101927.19;5111545;28;20055;-67
2023/07/18 07:14:27;;;;;;;7.13;3.20;;;;;;;18.05;66.54;101930.50;5110926;28;20024;-67
2023/07/18 07:16:53;;;;;;;5.68;3.17;;;;;;;18.24;64.74;101921.88;5111603;28;20068;-68
2023/07/18 07:19:18;;;;;;;6.75;3.00;;;;;;;18.22;62.05;101929.19;5109308;28;20413;-67
2023/07/18 07:21:45;;;;;;;4.55;2.78;;;;;;;18.27;62.14;101928.84;5111576;28;20436;-67
2023/07/18 07:24:11;;;;;;;9.02;3.08;;;;;;;18.20;61.03;101927.59;5079257;28;20452;-67
2023/07/18 07:26:39;;;;;;;8.30;3.65;;;;;;;18.25;61.61;101917.34;5096989;28;20240;-67
2023/07/18 07:29:05;;;;;;;5.43;3.25;;;;;;;18.33;61.33;101922.97;5091679;28;20062;-67
2023/07/18 07:31:31;;;;;;;4.90;2.90;;;;;;;18.53;61.46;101916.88;5115326;28;20059;-67
2023/07/18 07:33:57;;;;;;;3.97;2.72;;;;;;;18.59;61.24;101924.47;5114217;28;20488;-67
2023/07/18 07:36:22;;;;;;;6.38;3.00;;;;;;;18.57;61.53;101921.03;5115095;28;20050;-67
2023/07/18 07:38:48;;;;;;;5.93;3.42;;;;;;;18.67;60.74;101923.81;5113569;28;20156;-67
2023/07/18 07:41:14;;;;;;;7.03;3.25;;;;;;;18.67;61.04;101914.88;5096800;28;20076;-67
2023/07/18 07:43:41;;;;;;;5.22;3.00;;;;;;;18.87;61.51;101916.00;5115106;28;20056;-67
2023/07/18 07:46:07;;;;;;;3.35;3.03;;;;;;;18.93;58.18;101927.16;5096883;28;20450;-67
2023/07/18 07:48:35;;;;;;;3.88;2.70;;;;;;;18.97;57.28;101925.94;5102559;27;20041;-67
2023/07/18 07:51:03;;;;;;;3.38;2.58;;;;;;;19.04;57.50;101921.75;5110043;28;20027;-67
2023/07/18 07:53:29;;;;;;;4.40;2.67;;;;;;;19.12;56.95;101923.81;5110560;27;20023;-67
2023/07/18 07:55:54;;;;;;;4.60;2.90;;;;;;;19.08;56.63;101911.56;5095968;28;20507;-67
2023/07/18 07:58:20;;;;;;;5.25;2.47;;;;;;;19.31;57.66;101920.47;5095834;28;20142;-67
2023/07/18 08:00:45;;;;;;;4.18;2.60;;;;;;;19.56;56.22;101915.69;5113293;28;20050;-67
2023/07/18 08:03:11;;;;;;;5.60;2.83;;;;;;;19.62;55.97;101921.47;5113619;27;20038;-67
2023/07/18 08:05:36;;;;;;;7.68;2.55;;;;;;;19.73;54.68;101916.00;5113915;28;20452;-67
2023/07/18 08:08:02;;;;;;;3.65;2.33;;;;;;;19.86;53.50;101915.00;5112327;28;20549;-67
2023/07/18 08:10:27;;;;;;;3.28;2.15;;;;;;;19.85;53.64;101914.09;5094809;28;20080;-68
2023/07/18 08:12:52;;;;;;;4.15;2.10;;;;;;;19.94;53.56;101915.16;5114074;28;20068;-67
2023/07/18 08:15:19;;;;;;;3.70;2.40;;;;;;;19.99;52.61;101912.09;5095622;28;20382;-67
2023/07/18 08:17:45;;;;;;;4.10;2.67;;;;;;;20.17;52.98;101915.88;5113632;27;20029;-67
2023/07/18 08:20:12;;;;;;;4.38;2.20;;;;;;;20.36;52.68;101907.91;5109477;28;20019;-67
2023/07/18 08:22:38;;;;;;;4.75;2.10;;;;;;;20.20;50.54;101910.22;5111750;28;20051;-66
2023/07/18 08:25:06;;;;;;;3.50;2.30;;;;;;;20.13;50.70;101907.19;5112932;28;20016;-66
2023/07/18 08:27:31;;;;;;;2.95;2.00;;;;;;;20.27;50.56;101910.56;5095215;28;20035;-67
2023/07/18 08:29:57;;;;;;;3.58;2.20;;;;;;;20.33;51.49;101905.47;5111705;28;20024;-67
2023/07/18 08:32:22;;;;;;;3.40;2.30;;;;;;;20.55;50.24;101899.03;5110853;27;20489;-67
2023/07/18 08:34:48;;;;;;;5.55;2.25;;;;;;;20.64;50.66;101894.66;5110442;28;20035;-67
2023/07/18 08:37:13;;;;;;;1.98;1.70;;;;;;;20.92;50.47;101898.47;5078042;28;20023;-67
2023/07/18 08:39:41;;;;;;;4.22;2.20;;;;;;;20.86;48.29;101893.63;5111671;27;20016;-67
2023/07/18 08:42:07;;;;;;;2.60;1.98;;;;;;;21.02;49.88;101891.22;5104531;27;20723;-66
2023/07/18 08:44:34;;;;;;;5.90;2.20;;;;;;;21.12;48.55;101895.78;5091761;28;20028;-67
2023/07/18 08:47:02;;;;;;;4.07;2.10;;;;;;;21.40;49.23;101889.59;5111138;28;20103;-67
2023/07/18 08:49:32;;;;;;;3.80;2.03;;;;;;;21.46;46.63;101890.88;5093993;28;20019;-67
2023/07/18 08:51:57;;;;;;;3.45;2.20;;;;;;;21.39;46.90;101892.44;5093978;28;20718;-67
2023/07/18 08:54:23;;;;;;;2.65;1.98;;;;;;;21.50;46.86;101886.88;5108337;28;20028;-67
2023/07/18 08:56:48;;;;;;;2.88;2.00;;;;;;;21.75;45.10;101880.03;5088043;28;20497;-67
2023/07/18 08:59:15;;;;;;;2.67;2.03;;;;;;;21.87;44.99;101881.56;5111671;28;20050;-70
2023/07/18 09:01:51;;;;;;;3.25;2.17;;;;;;;22.04;45.51;101874.56;5107915;28;20065;-67
2023/07/18 09:04:17;;;;;;;2.88;1.75;;;;;;;22.00;44.36;101871.28;5093516;28;20016;-67
2023/07/18 09:06:55;;;;;;;5.75;1.90;;;;;;;22.16;43.76;101869.81;5110901;28;20019;-67
2023/07/18 09:09:23;;;;;;;2.70;1.75;;;;;;;22.38;44.31;101874.03;5107731;28;20036;-66
2023/07/18 09:11:58;;;;;;;5.60;1.50;;;;;;;22.35;43.92;101871.63;5112507;28;20106;-68
2023/07/18 09:14:31;;;;;;;4.72;1.70;;;;;;;22.77;43.08;101863.03;5112544;28;20126;-67
2023/07/18 09:17:03;;;;;;;1.70;1.60;;;;;;;22.92;42.65;101866.91;5109722;28;20030;-67
2023/07/18 09:19:48;;;;;;;2.83;1.63;;;;;;;23.24;43.26;101857.44;5109825;28;20382;-67
2023/07/18 09:22:18;;;;;;;4.22;1.63;;;;;;;23.17;41.17;101859.06;5113114;28;20016;-67
2023/07/18 09:24:46;;;;;;;2.58;1.33;;;;;;;23.21;41.78;101855.03;5112753;28;20027;-67
2023/07/18 09:27:17;;;;;;;2.97;1.52;;;;;;;23.04;41.32;101848.59;5111881;28;20409;-67
2023/07/18 09:29:47;;;;;;;3.17;1.70;;;;;;;22.76;41.63;101850.44;5094606;28;20059;-67
2023/07/18 09:32:17;;;;;;;2.75;1.65;;;;;;;22.87;42.41;101842.09;5112629;28;20065;-67
2023/07/18 09:34:51;;;;;;;3.38;1.80;;;;;;;23.24;42.08;101843.88;5094658;28;20088;-67
2023/07/18 09:37:17;;;;;;;5.13;1.95;;;;;;;23.46;41.02;101847.97;5112678;28;20431;-67
2023/07/18 09:39:43;;;;;;;5.13;2.22;;;;;;;23.72;39.86;101839.88;5112651;28;20091;-67
2023/07/18 09:42:10;;;;;;;4.32;1.60;;;;;;;24.03;40.33;101830.25;5112536;28;20103;-67
2023/07/18 09:44:37;;;;;;;2.33;1.30;;;;;;;24.08;39.95;101837.91;5112456;28;20485;-67
2023/07/18 09:47:07;;;;;;;3.00;1.80;;;;;;;23.99;40.22;101842.44;5111443;28;20106;-67
2023/07/18 09:49:33;;;;;;;3.08;1.48;;;;;;;23.83;40.59;101841.50;5077923;28;20023;-67
2023/07/18 09:52:06;;;;;;;3.13;1.67;;;;;;;23.64;41.08;101846.06;5094269;28;20031;-67
2023/07/18 09:54:33;;;;;;;3.03;1.55;;;;;;;23.65;41.22;101844.19;5112102;28;20020;-68
2023/07/18 09:57:09;;;;;;;4.03;2.00;;;;;;;23.33;41.08;101835.63;5094086;28;20034;-67
2023/07/18 09:59:39;;;;;;;3.92;1.80;;;;;;;23.69;40.87;101843.72;5112129;28;20023;-67
2023/07/18 10:02:06;;;;;;;3.90;1.52;;;;;;;23.89;39.85;101830.00;5094222;28;20020;-67
2023/07/18 10:04:33;;;;;;;3.63;1.75;;;;;;;24.08;40.11;101832.47;5112594;28;20023;-68
2023/07/18 10:07:01;;;;;;;2.13;1.60;;;;;;;24.52;39.12;101821.47;5093683;28;20032;-67
2023/07/18 10:09:27;;;;;;;3.55;1.70;;;;;;;24.47;38.12;101819.28;5111614;28;20063;-67
2023/07/18 10:11:59;;;;;;;3.05;1.60;;;;;;;24.70;38.64;101821.38;5112301;28;20055;-68
2023/07/18 10:14:28;;;;;;;5.28;1.58;;;;;;;24.42;38.96;101820.75;5112521;28;20027;-67
2023/07/18 10:16:55;;;;;;;4.05;1.70;;;;;;;24.82;38.29;101811.03;5112204;28;20019;-67
2023/07/18 10:19:24;;;;;;;3.05;1.60;;;;;;;25.02;37.58;101798.81;5112389;28;20024;-67
2023/07/18 10:22:00;;;;;;;2.97;1.45;;;;;;;25.07;38.54;101791.00;5112225;28;20482;-68
2023/07/18 10:24:31;;;;;;;4.03;1.50;;;;;;;24.74;36.94;101787.38;5111891;28;20510;-68
2023/07/18 10:27:07;;;;;;;3.15;1.40;;;;;;;24.66;38.55;101788.22;5111996;28;20027;-67
2023/07/18 10:29:41;;;;;;;2.72;1.33;;;;;;;24.29;38.53;101782.28;5111906;28;20027;-67
2023/07/18 10:32:10;;;;;;;4.03;1.50;;;;;;;24.18;39.14;101788.88;5112020;28;20386;-68
2023/07/18 10:34:39;;;;;;;2.50;1.58;;;;;;;24.24;39.61;101786.34;5112162;28;20076;-67
2023/07/18 10:37:09;;;;;;;2.35;1.60;;;;;;;23.95;39.31;101789.44;5110995;28;20034;-67
2023/07/18 10:39:34;;;;;;;3.25;1.65;;;;;;;24.28;39.41;101781.41;5111567;28;20028;-67
2023/07/18 10:42:27;;;;;;;2.85;1.63;;;;;;;24.75;38.73;101782.78;5111883;28;20027;-67
2023/07/18 10:45:08;;;;;;;3.25;1.38;;;;;;;24.96;38.50;101783.16;5093485;28;20024;-67
2023/07/18 10:47:37;;;;;;;2.80;1.60;;;;;;;25.22;37.74;101780.31;5111476;28;20462;-68
2023/07/18 10:50:04;;;;;;;4.07;1.50;;;;;;;25.50;37.19;101775.38;5111690;28;20070;-68
2023/07/18 10:52:30;;;;;;;5.35;2.28;;;;;;;25.76;37.37;101772.41;5111957;28;20020;-67
2023/07/18 10:54:57;;;;;;;3.65;1.55;;;;;;;25.64;37.43;101771.06;5110921;28;20027;-68
2023/07/18 10:57:30;;;;;;;2.67;1.50;;;;;;;25.63;37.99;101776.72;5111995;27;20024;-67
2023/07/18 10:59:58;;;;;;;4.00;1.30;;;;;;;25.54;36.39;101775.88;5115746;28;20038;-68
2023/07/18 11:02:26;;;;;;;3.50;1.55;;;;;;;25.55;36.77;101763.94;5115808;28;20068;-67
2023/07/18 11:04:53;;;;;;;8.43;2.10;;;;;;;25.53;36.75;101766.84;5097598;28;20016;-68
2023/07/18 11:07:35;;;;;;;2.13;1.30;;;;;;;25.68;37.86;101763.38;5115806;28;20110;-67
2023/07/18 11:10:01;;;;;;;3.72;1.25;;;;;;;25.96;36.39;101772.03;5115066;28;20044;-68
2023/07/18 11:12:28;;;;;;;3.28;1.50;;;;;;;25.99;35.61;101764.38;5115613;28;20501;-67
2023/07/18 11:14:55;;;;;;;4.60;1.42;;;;;;;26.03;34.95;101771.19;5097073;28;20490;-68
2023/07/18 11:17:20;;;;;;;5.80;1.27;;;;;;;26.20;35.04;101754.75;5115820;28;20402;-68
2023/07/18 11:19:48;;;;;;;4.38;1.40;;;;;;;26.52;36.14;101761.94;5115864;28;20035;-68
2023/07/18 11:22:15;;;;;;;6.20;1.67;;;;;;;26.82;34.71;101760.19;5115748;28;20034;-68